sensor_id;sensor_type;location;lat;lon;timestamp;temperature;humidity
29479;DHT22;16437;41.836;23.480;2022-12-29T00:02:35;10.40;61.10
29479;DHT22;16437;41.836;23.480;2022-12-29T00:08:01;10.40;61.10
29479;DHT22;16437;41.836;23.480;2022-12-29T00:13:27;10.40;61.10
29479;DHT22;16437;41.836;23.480;2022-12-29T00:19:12;10.40;61.20
29479;DHT22;16437;41.836;23.480;2022-12-29T00:24:57;10.40;61.20
29479;DHT22;16437;41.836;23.480;2022-12-29T00:30:42;10.30;61.20
29479;DHT22;16437;41.836;23.480;2022-12-29T00:36:36;10.40;61.20
29479;DHT22;16437;41.836;23.480;2022-12-29T00:42:04;10.40;61.20
29479;DHT22;16437;41.836;23.480;2022-12-29T00:47:49;10.30;61.20
29479;DHT22;16437;41.836;23.480;2022-12-29T00:53:15;10.40;61.30
29479;DHT22;16437;41.836;23.480;2022-12-29T00:58:41;10.40;61.30
29479;DHT22;16437;41.836;23.480;2022-12-29T01:04:08;10.40;61.20
29479;DHT22;16437;41.836;23.480;2022-12-29T01:09:34;10.40;61.20
29479;DHT22;16437;41.836;23.480;2022-12-29T01:15:20;10.40;61.20
29479;DHT22;16437;41.836;23.480;2022-12-29T01:20:46;10.40;61.10
29479;DHT22;16437;41.836;23.480;2022-12-29T01:26:14;10.40;61.10
29479;DHT22;16437;41.836;23.480;2022-12-29T01:31:42;10.40;61.10
29479;DHT22;16437;41.836;23.480;2022-12-29T01:37:08;10.40;61.20
29479;DHT22;16437;41.836;23.480;2022-12-29T01:42:35;10.40;61.20
29479;DHT22;16437;41.836;23.480;2022-12-29T01:48:03;10.40;61.30
29479;DHT22;16437;41.836;23.480;2022-12-29T01:53:32;10.40;61.20
29479;DHT22;16437;41.836;23.480;2022-12-29T01:59:04;10.40;61.20
29479;DHT22;16437;41.836;23.480;2022-12-29T02:04:31;10.40;61.20
29479;DHT22;16437;41.836;23.480;2022-12-29T02:09:59;10.30;61.20
29479;DHT22;16437;41.836;23.480;2022-12-29T02:15:44;10.40;61.10
29479;DHT22;16437;41.836;23.480;2022-12-29T02:21:23;10.30;61.20
29479;DHT22;16437;41.836;23.480;2022-12-29T02:32:36;10.30;61.20
29479;DHT22;16437;41.836;23.480;2022-12-29T02:38:06;10.30;61.30
29479;DHT22;16437;41.836;23.480;2022-12-29T02:43:38;10.30;61.30
29479;DHT22;16437;41.836;23.480;2022-12-29T02:49:06;10.30;61.30
29479;DHT22;16437;41.836;23.480;2022-12-29T02:54:33;10.30;61.20
29479;DHT22;16437;41.836;23.480;2022-12-29T03:00:17;10.30;61.20
29479;DHT22;16437;41.836;23.480;2022-12-29T03:11:53;10.30;61.20
29479;DHT22;16437;41.836;23.480;2022-12-29T03:23:08;10.30;61.10
29479;DHT22;16437;41.836;23.480;2022-12-29T03:28:39;10.30;61.20
29479;DHT22;16437;41.836;23.480;2022-12-29T03:34:07;10.30;61.20
29479;DHT22;16437;41.836;23.480;2022-12-29T03:39:34;10.30;61.10
29479;DHT22;16437;41.836;23.480;2022-12-29T03:45:01;10.20;61.00
29479;DHT22;16437;41.836;23.480;2022-12-29T03:50:27;10.20;61.00
29479;DHT22;16437;41.836;23.480;2022-12-29T03:55:53;10.20;60.90
29479;DHT22;16437;41.836;23.480;2022-12-29T04:01:20;10.20;60.80
29479;DHT22;16437;41.836;23.480;2022-12-29T04:06:46;10.20;60.70
29479;DHT22;16437;41.836;23.480;2022-12-29T04:12:13;10.10;60.70
29479;DHT22;16437;41.836;23.480;2022-12-29T04:17:39;10.10;60.60
29479;DHT22;16437;41.836;23.480;2022-12-29T04:23:06;10.10;60.50
29479;DHT22;16437;41.836;23.480;2022-12-29T04:28:33;10.20;60.40
29479;DHT22;16437;41.836;23.480;2022-12-29T04:33:59;10.10;60.40
29479;DHT22;16437;41.836;23.480;2022-12-29T04:39:26;10.10;60.30
29479;DHT22;16437;41.836;23.480;2022-12-29T04:44:52;10.10;60.40
29479;DHT22;16437;41.836;23.480;2022-12-29T04:50:18;10.10;60.40
29479;DHT22;16437;41.836;23.480;2022-12-29T04:55:48;10.10;60.50
29479;DHT22;16437;41.836;23.480;2022-12-29T05:01:12;10.10;60.50
29479;DHT22;16437;41.836;23.480;2022-12-29T05:06:39;10.10;60.60
29479;DHT22;16437;41.836;23.480;2022-12-29T05:12:05;10.10;60.60
29479;DHT22;16437;41.836;23.480;2022-12-29T05:17:31;10.10;60.70
29479;DHT22;16437;41.836;23.480;2022-12-29T05:22:58;10.10;60.60
29479;DHT22;16437;41.836;23.480;2022-12-29T05:28:25;10.10;60.50
29479;DHT22;16437;41.836;23.480;2022-12-29T05:33:51;10.10;60.50
29479;DHT22;16437;41.836;23.480;2022-12-29T05:39:18;10.10;60.40
29479;DHT22;16437;41.836;23.480;2022-12-29T05:44:44;10.10;60.50
29479;DHT22;16437;41.836;23.480;2022-12-29T05:50:11;10.10;60.50
29479;DHT22;16437;41.836;23.480;2022-12-29T05:55:37;10.10;60.50
29479;DHT22;16437;41.836;23.480;2022-12-29T06:01:04;10.10;60.60
29479;DHT22;16437;41.836;23.480;2022-12-29T06:06:31;10.10;60.60
29479;DHT22;16437;41.836;23.480;2022-12-29T06:11:57;10.10;60.70
29479;DHT22;16437;41.836;23.480;2022-12-29T06:17:23;10.10;60.60
29479;DHT22;16437;41.836;23.480;2022-12-29T06:22:50;10.10;60.70
29479;DHT22;16437;41.836;23.480;2022-12-29T06:28:16;10.10;60.60
29479;DHT22;16437;41.836;23.480;2022-12-29T06:33:43;10.10;60.50
29479;DHT22;16437;41.836;23.480;2022-12-29T06:39:10;10.00;60.50
29479;DHT22;16437;41.836;23.480;2022-12-29T06:44:37;10.00;60.50
29479;DHT22;16437;41.836;23.480;2022-12-29T06:50:04;10.00;60.50
29479;DHT22;16437;41.836;23.480;2022-12-29T06:55:30;10.10;60.40
29479;DHT22;16437;41.836;23.480;2022-12-29T07:00:56;10.00;60.50
29479;DHT22;16437;41.836;23.480;2022-12-29T07:06:23;10.00;60.50
29479;DHT22;16437;41.836;23.480;2022-12-29T07:11:49;10.10;60.50
29479;DHT22;16437;41.836;23.480;2022-12-29T07:17:16;10.10;60.60
29479;DHT22;16437;41.836;23.480;2022-12-29T07:22:42;10.10;60.60
29479;DHT22;16437;41.836;23.480;2022-12-29T07:28:09;10.10;60.60
29479;DHT22;16437;41.836;23.480;2022-12-29T07:33:35;10.00;60.70
29479;DHT22;16437;41.836;23.480;2022-12-29T07:39:02;10.10;60.70
29479;DHT22;16437;41.836;23.480;2022-12-29T07:44:28;10.00;60.70
29479;DHT22;16437;41.836;23.480;2022-12-29T07:49:55;10.10;60.70
29479;DHT22;16437;41.836;23.480;2022-12-29T07:55:21;10.00;60.70
29479;DHT22;16437;41.836;23.480;2022-12-29T08:00:52;10.00;60.70
29479;DHT22;16437;41.836;23.480;2022-12-29T08:06:15;10.10;60.80
29479;DHT22;16437;41.836;23.480;2022-12-29T08:11:42;10.10;60.90
29479;DHT22;16437;41.836;23.480;2022-12-29T08:17:09;10.10;60.90
29479;DHT22;16437;41.836;23.480;2022-12-29T08:22:36;10.10;60.90
29479;DHT22;16437;41.836;23.480;2022-12-29T08:28:03;10.10;60.90
29479;DHT22;16437;41.836;23.480;2022-12-29T08:33:29;10.10;60.90
29479;DHT22;16437;41.836;23.480;2022-12-29T08:38:56;10.10;60.90
29479;DHT22;16437;41.836;23.480;2022-12-29T08:44:22;10.10;60.90
29479;DHT22;16437;41.836;23.480;2022-12-29T08:49:48;10.10;60.90
29479;DHT22;16437;41.836;23.480;2022-12-29T08:55:15;10.10;60.90
29479;DHT22;16437;41.836;23.480;2022-12-29T09:00:42;10.10;60.90
29479;DHT22;16437;41.836;23.480;2022-12-29T09:06:08;10.10;60.90
29479;DHT22;16437;41.836;23.480;2022-12-29T09:11:34;10.10;61.00
29479;DHT22;16437;41.836;23.480;2022-12-29T09:17:01;10.10;61.00
29479;DHT22;16437;41.836;23.480;2022-12-29T09:22:46;10.10;61.00
29479;DHT22;16437;41.836;23.480;2022-12-29T09:28:13;10.10;61.00
29479;DHT22;16437;41.836;23.480;2022-12-29T09:33:40;10.10;61.10
29479;DHT22;16437;41.836;23.480;2022-12-29T09:39:07;10.20;61.10
29479;DHT22;16437;41.836;23.480;2022-12-29T09:50:21;10.20;61.00
29479;DHT22;16437;41.836;23.480;2022-12-29T09:55:51;10.20;61.00
29479;DHT22;16437;41.836;23.480;2022-12-29T10:01:52;10.20;61.10
29479;DHT22;16437;41.836;23.480;2022-12-29T10:13:16;10.20;61.10
29479;DHT22;16437;41.836;23.480;2022-12-29T10:19:03;10.30;61.10
29479;DHT22;16437;41.836;23.480;2022-12-29T10:24:28;10.40;61.00
29479;DHT22;16437;41.836;23.480;2022-12-29T10:29:56;10.40;61.00
29479;DHT22;16437;41.836;23.480;2022-12-29T10:35:26;10.40;61.00
29479;DHT22;16437;41.836;23.480;2022-12-29T10:40:58;10.50;60.90
29479;DHT22;16437;41.836;23.480;2022-12-29T10:46:32;10.50;60.90
29479;DHT22;16437;41.836;23.480;2022-12-29T10:51:59;10.60;60.90
29479;DHT22;16437;41.836;23.480;2022-12-29T10:57:31;10.60;60.80
29479;DHT22;16437;41.836;23.480;2022-12-29T11:08:49;10.80;60.60
29479;DHT22;16437;41.836;23.480;2022-12-29T11:14:13;10.80;60.50
29479;DHT22;16437;41.836;23.480;2022-12-29T11:19:40;10.90;60.40
29479;DHT22;16437;41.836;23.480;2022-12-29T11:25:10;10.90;60.40
29479;DHT22;16437;41.836;23.480;2022-12-29T11:30:35;11.00;60.40
29479;DHT22;16437;41.836;23.480;2022-12-29T11:36:11;11.10;60.40
29479;DHT22;16437;41.836;23.480;2022-12-29T11:41:37;11.20;60.40
29479;DHT22;16437;41.836;23.480;2022-12-29T11:47:04;11.30;60.50
29479;DHT22;16437;41.836;23.480;2022-12-29T11:52:33;11.40;60.40
29479;DHT22;16437;41.836;23.480;2022-12-29T11:58:02;11.60;60.10
29479;DHT22;16437;41.836;23.480;2022-12-29T12:03:31;11.70;59.80
29479;DHT22;16437;41.836;23.480;2022-12-29T12:09:02;11.80;59.50
29479;DHT22;16437;41.836;23.480;2022-12-29T12:14:37;11.90;59.10
29479;DHT22;16437;41.836;23.480;2022-12-29T12:20:21;11.90;58.70
29479;DHT22;16437;41.836;23.480;2022-12-29T12:26:12;12.00;58.50
29479;DHT22;16437;41.836;23.480;2022-12-29T12:31:51;12.00;58.30
29479;DHT22;16437;41.836;23.480;2022-12-29T12:43:06;12.10;58.20
29479;DHT22;16437;41.836;23.480;2022-12-29T12:48:48;12.20;58.20
29479;DHT22;16437;41.836;23.480;2022-12-29T12:59:58;12.20;58.20
29479;DHT22;16437;41.836;23.480;2022-12-29T13:11:42;12.30;58.10
29479;DHT22;16437;41.836;23.480;2022-12-29T13:23:05;12.30;58.20
29479;DHT22;16437;41.836;23.480;2022-12-29T13:28:55;12.30;58.20
29479;DHT22;16437;41.836;23.480;2022-12-29T13:40:15;12.30;58.30
29479;DHT22;16437;41.836;23.480;2022-12-29T13:45:42;12.40;58.40
29479;DHT22;16437;41.836;23.480;2022-12-29T13:51:09;12.30;58.50
29479;DHT22;16437;41.836;23.480;2022-12-29T13:56:42;12.20;58.60
29479;DHT22;16437;41.836;23.480;2022-12-29T14:02:41;12.10;58.80
29479;DHT22;16437;41.836;23.480;2022-12-29T14:08:13;12.00;59.00
29479;DHT22;16437;41.836;23.480;2022-12-29T14:13:37;11.90;59.20
29479;DHT22;16437;41.836;23.480;2022-12-29T14:19:12;11.80;59.50
29479;DHT22;16437;41.836;23.480;2022-12-29T14:30:34;11.70;60.10
29479;DHT22;16437;41.836;23.480;2022-12-29T14:35:40;11.60;60.30
29479;DHT22;16437;41.836;23.480;2022-12-29T14:41:24;11.60;60.50
29479;DHT22;16437;41.836;23.480;2022-12-29T14:52:25;11.50;60.80
29479;DHT22;16437;41.836;23.480;2022-12-29T14:57:59;11.40;60.80
29479;DHT22;16437;41.836;23.480;2022-12-29T15:03:36;11.40;60.90
29479;DHT22;16437;41.836;23.480;2022-12-29T15:09:17;11.40;61.00
29479;DHT22;16437;41.836;23.480;2022-12-29T15:14:52;11.40;61.10
29479;DHT22;16437;41.836;23.480;2022-12-29T15:20:30;11.40;61.00
29479;DHT22;16437;41.836;23.480;2022-12-29T15:26:02;11.30;61.10
29479;DHT22;16437;41.836;23.480;2022-12-29T15:31:26;11.30;61.00
29479;DHT22;16437;41.836;23.480;2022-12-29T15:36:53;11.20;60.90
29479;DHT22;16437;41.836;23.480;2022-12-29T15:42:45;11.20;60.90
29479;DHT22;16437;41.836;23.480;2022-12-29T15:48:13;11.20;60.80
29479;DHT22;16437;41.836;23.480;2022-12-29T15:53:36;11.10;60.90
29479;DHT22;16437;41.836;23.480;2022-12-29T15:59:03;11.10;60.80
29479;DHT22;16437;41.836;23.480;2022-12-29T16:04:30;11.20;60.70
29479;DHT22;16437;41.836;23.480;2022-12-29T16:10:02;11.10;60.70
29479;DHT22;16437;41.836;23.480;2022-12-29T16:15:29;11.10;60.60
29479;DHT22;16437;41.836;23.480;2022-12-29T16:20:56;11.10;60.60
29479;DHT22;16437;41.836;23.480;2022-12-29T16:26:24;11.10;60.60
29479;DHT22;16437;41.836;23.480;2022-12-29T16:31:55;11.00;60.50
29479;DHT22;16437;41.836;23.480;2022-12-29T16:37:34;11.00;60.60
29479;DHT22;16437;41.836;23.480;2022-12-29T16:43:04;11.00;60.50
29479;DHT22;16437;41.836;23.480;2022-12-29T16:48:54;11.00;60.40
29479;DHT22;16437;41.836;23.480;2022-12-29T16:54:33;11.00;60.30
29479;DHT22;16437;41.836;23.480;2022-12-29T17:00:02;11.00;60.20
29479;DHT22;16437;41.836;23.480;2022-12-29T17:05:29;11.00;60.30
29479;DHT22;16437;41.836;23.480;2022-12-29T17:10:56;11.00;60.30
29479;DHT22;16437;41.836;23.480;2022-12-29T17:16:41;10.90;60.40
29479;DHT22;16437;41.836;23.480;2022-12-29T17:22:13;10.90;60.70
29479;DHT22;16437;41.836;23.480;2022-12-29T17:27:53;10.90;60.80
29479;DHT22;16437;41.836;23.480;2022-12-29T17:33:17;10.90;60.70
29479;DHT22;16437;41.836;23.480;2022-12-29T17:38:44;10.90;60.70
29479;DHT22;16437;41.836;23.480;2022-12-29T17:44:17;10.90;60.60
29479;DHT22;16437;41.836;23.480;2022-12-29T17:49:40;10.90;60.50
29479;DHT22;16437;41.836;23.480;2022-12-29T17:55:14;10.90;60.30
29479;DHT22;16437;41.836;23.480;2022-12-29T18:00:40;10.80;60.20
29479;DHT22;16437;41.836;23.480;2022-12-29T18:06:09;10.80;60.10
29479;DHT22;16437;41.836;23.480;2022-12-29T18:11:41;10.80;60.00
29479;DHT22;16437;41.836;23.480;2022-12-29T18:17:12;10.80;59.90
29479;DHT22;16437;41.836;23.480;2022-12-29T18:22:38;10.80;59.80
29479;DHT22;16437;41.836;23.480;2022-12-29T18:28:05;10.80;59.80
29479;DHT22;16437;41.836;23.480;2022-12-29T18:33:31;10.80;59.70
29479;DHT22;16437;41.836;23.480;2022-12-29T18:38:59;10.80;59.80
29479;DHT22;16437;41.836;23.480;2022-12-29T18:44:25;10.80;59.90
29479;DHT22;16437;41.836;23.480;2022-12-29T18:49:53;10.80;60.00
29479;DHT22;16437;41.836;23.480;2022-12-29T18:55:22;10.80;60.10
29479;DHT22;16437;41.836;23.480;2022-12-29T19:00:48;10.80;60.20
29479;DHT22;16437;41.836;23.480;2022-12-29T19:06:15;10.80;60.50
29479;DHT22;16437;41.836;23.480;2022-12-29T19:11:42;10.80;60.70
29479;DHT22;16437;41.836;23.480;2022-12-29T19:17:13;10.80;60.70
29479;DHT22;16437;41.836;23.480;2022-12-29T19:22:39;10.80;60.90
29479;DHT22;16437;41.836;23.480;2022-12-29T19:28:06;10.80;61.00
29479;DHT22;16437;41.836;23.480;2022-12-29T19:33:34;10.80;61.10
29479;DHT22;16437;41.836;23.480;2022-12-29T19:39:00;10.80;61.10
29479;DHT22;16437;41.836;23.480;2022-12-29T19:44:27;10.80;61.10
29479;DHT22;16437;41.836;23.480;2022-12-29T19:49:53;10.80;61.20
29479;DHT22;16437;41.836;23.480;2022-12-29T19:55:20;10.80;61.20
29479;DHT22;16437;41.836;23.480;2022-12-29T20:00:47;10.80;61.30
29479;DHT22;16437;41.836;23.480;2022-12-29T20:06:15;10.70;61.30
29479;DHT22;16437;41.836;23.480;2022-12-29T20:11:42;10.70;61.20
29479;DHT22;16437;41.836;23.480;2022-12-29T20:17:10;10.70;61.20
29479;DHT22;16437;41.836;23.480;2022-12-29T20:22:37;10.70;61.10
29479;DHT22;16437;41.836;23.480;2022-12-29T20:28:03;10.70;61.00
29479;DHT22;16437;41.836;23.480;2022-12-29T20:33:33;10.70;60.90
29479;DHT22;16437;41.836;23.480;2022-12-29T20:39:03;10.70;60.70
29479;DHT22;16437;41.836;23.480;2022-12-29T20:44:30;10.70;60.70
29479;DHT22;16437;41.836;23.480;2022-12-29T20:49:57;10.70;60.60
29479;DHT22;16437;41.836;23.480;2022-12-29T20:55:24;10.70;60.60
29479;DHT22;16437;41.836;23.480;2022-12-29T21:00:51;10.70;60.70
29479;DHT22;16437;41.836;23.480;2022-12-29T21:06:18;10.70;60.80
29479;DHT22;16437;41.836;23.480;2022-12-29T21:11:46;10.70;60.90
29479;DHT22;16437;41.836;23.480;2022-12-29T21:17:13;10.60;61.00
29479;DHT22;16437;41.836;23.480;2022-12-29T21:22:40;10.60;61.10
29479;DHT22;16437;41.836;23.480;2022-12-29T21:28:08;10.70;61.20
29479;DHT22;16437;41.836;23.480;2022-12-29T21:33:36;10.60;61.20
29479;DHT22;16437;41.836;23.480;2022-12-29T21:39:03;10.60;61.10
29479;DHT22;16437;41.836;23.480;2022-12-29T21:44:30;10.60;61.20
29479;DHT22;16437;41.836;23.480;2022-12-29T21:50:14;10.60;61.20
29479;DHT22;16437;41.836;23.480;2022-12-29T21:55:41;10.60;61.20
29479;DHT22;16437;41.836;23.480;2022-12-29T22:01:09;10.60;61.10
29479;DHT22;16437;41.836;23.480;2022-12-29T22:06:54;10.60;61.10
29479;DHT22;16437;41.836;23.480;2022-12-29T22:12:40;10.60;61.20
29479;DHT22;16437;41.836;23.480;2022-12-29T22:18:25;10.60;61.20
29479;DHT22;16437;41.836;23.480;2022-12-29T22:23:51;10.60;61.10
29479;DHT22;16437;41.836;23.480;2022-12-29T22:29:17;10.50;61.10
29479;DHT22;16437;41.836;23.480;2022-12-29T22:34:43;10.60;61.10
29479;DHT22;16437;41.836;23.480;2022-12-29T22:40:12;10.50;61.10
29479;DHT22;16437;41.836;23.480;2022-12-29T22:45:39;10.50;61.10
29479;DHT22;16437;41.836;23.480;2022-12-29T22:51:06;10.50;61.10
29479;DHT22;16437;41.836;23.480;2022-12-29T22:56:32;10.50;61.20
29479;DHT22;16437;41.836;23.480;2022-12-29T23:02:01;10.50;61.20
29479;DHT22;16437;41.836;23.480;2022-12-29T23:07:27;10.50;61.20
29479;DHT22;16437;41.836;23.480;2022-12-29T23:12:53;10.50;61.10
29479;DHT22;16437;41.836;23.480;2022-12-29T23:18:20;10.50;61.10
29479;DHT22;16437;41.836;23.480;2022-12-29T23:23:47;10.50;61.10
29479;DHT22;16437;41.836;23.480;2022-12-29T23:29:19;10.50;61.00
29479;DHT22;16437;41.836;23.480;2022-12-29T23:34:46;10.50;61.00
29479;DHT22;16437;41.836;23.480;2022-12-29T23:40:12;10.50;61.10
29479;DHT22;16437;41.836;23.480;2022-12-29T23:45:38;10.50;61.10
29479;DHT22;16437;41.836;23.480;2022-12-29T23:51:05;10.40;61.10
29479;DHT22;16437;41.836;23.480;2022-12-29T23:56:32;10.40;61.10
